Time;durP1;ratioP1;P1;durP2;ratioP2;P2;SDS_P1;SDS_P2;PMS_P1;PMS_P2;Temp;Humidity;BMP_temperature;BMP_pressure;BME280_temperature;BME280_humidity;BME280_pressure;Samples;Min_cycle;Max_cycle;Signal;HPM_P1;HPM_P2
2021/11/04 00:00:21;;;;;;;1.42;1.10;;;9.90;99.90;;;;;;5033570;28;20490;-54
2021/11/04 00:02:48;;;;;;;3.67;1.77;;;9.90;99.90;;;;;;5032378;28;20034;-54
2021/11/04 00:05:15;;;;;;;2.72;1.50;;;9.90;99.90;;;;;;5032555;28;20036;-54
2021/11/04 00:07:42;;;;;;;4.43;2.13;;;9.90;99.90;;;;;;5033402;28;20045;-53
2021/11/04 00:10:10;;;;;;;5.28;3.38;;;10.00;99.90;;;;;;5033033;28;20056;-54
2021/11/04 00:12:37;;;;;;;6.75;4.68;;;9.90;99.90;;;;;;5032910;28;20500;-54
2021/11/04 00:15:04;;;;;;;8.40;5.55;;;9.90;99.90;;;;;;5033509;28;20025;-53
2021/11/04 00:17:31;;;;;;;9.60;7.80;;;9.90;99.90;;;;;;5032759;28;20053;-54
2021/11/04 00:19:57;;;;;;;11.07;8.35;;;9.90;99.90;;;;;;5033172;28;20393;-55
2021/11/04 00:22:24;;;;;;;12.25;9.98;;;9.90;99.90;;;;;;5033039;28;20374;-52
2021/11/04 00:24:51;;;;;;;12.80;10.40;;;10.00;99.90;;;;;;5031492;28;20026;-50
2021/11/04 00:27:17;;;;;;;12.50;9.70;;;9.90;99.90;;;;;;5032722;28;20049;-52
2021/11/04 00:29:44;;;;;;;12.98;9.50;;;9.90;99.90;;;;;;5033179;28;20520;-52
2021/11/04 00:32:10;;;;;;;10.70;8.45;;;9.90;99.90;;;;;;5033234;28;20033;-53
2021/11/04 00:34:37;;;;;;;9.35;7.80;;;9.90;99.90;;;;;;5031318;28;20029;-55
2021/11/04 00:37:03;;;;;;;9.60;6.63;;;9.90;99.90;;;;;;5031795;28;20029;-55
2021/11/04 00:39:30;;;;;;;7.55;5.80;;;9.90;99.90;;;;;;5031102;28;20022;-55
2021/11/04 00:41:56;;;;;;;7.78;6.22;;;9.90;99.90;;;;;;5032440;28;20037;-59
2021/11/04 00:44:23;;;;;;;10.55;7.32;;;9.90;99.90;;;;;;5031268;28;20029;-56
2021/11/04 00:46:49;;;;;;;9.52;8.00;;;9.90;99.90;;;;;;5032799;28;20482;-51
2021/11/04 00:49:16;;;;;;;10.35;7.50;;;9.90;99.90;;;;;;5032505;28;20037;-54
2021/11/04 00:51:42;;;;;;;10.68;8.07;;;9.90;99.90;;;;;;5031331;28;20026;-53
2021/11/04 00:54:09;;;;;;;9.10;5.78;;;9.90;99.90;;;;;;5032298;28;20458;-53
2021/11/04 00:56:35;;;;;;;10.15;4.72;;;9.80;99.90;;;;;;5032457;28;20065;-51
2021/11/04 00:59:02;;;;;;;7.28;4.80;;;9.80;99.90;;;;;;5031303;28;20021;-53
2021/11/04 01:01:29;;;;;;;6.43;4.60;;;9.80;99.90;;;;;;5032158;28;20028;-55
2021/11/04 01:03:55;;;;;;;6.63;4.70;;;9.80;99.90;;;;;;5031107;28;20040;-55
2021/11/04 01:06:22;;;;;;;6.63;4.25;;;9.70;99.90;;;;;;5032745;28;20041;-52
2021/11/04 01:08:49;;;;;;;6.95;4.22;;;9.60;99.90;;;;;;5032863;28;20041;-61
2021/11/04 01:11:17;;;;;;;5.32;3.65;;;9.60;99.90;;;;;;5032653;28;20411;-52
2021/11/04 01:13:44;;;;;;;5.75;2.83;;;9.60;99.90;;;;;;5033021;28;20028;-54
2021/11/04 01:16:12;;;;;;;6.25;3.25;;;9.50;99.90;;;;;;5032045;28;20393;-52
2021/11/04 01:18:39;;;;;;;3.92;2.90;;;9.50;99.90;;;;;;5032696;28;20048;-54
2021/11/04 01:21:06;;;;;;;4.20;3.15;;;9.40;99.90;;;;;;5031240;28;20049;-54
2021/11/04 01:23:32;;;;;;;3.85;2.83;;;9.40;99.90;;;;;;5032107;28;20032;-55
2021/11/04 01:25:59;;;;;;;5.25;2.95;;;9.40;99.90;;;;;;5031619;28;20374;-57
2021/11/04 01:28:25;;;;;;;3.85;2.55;;;9.40;99.90;;;;;;5031402;28;20049;-50
2021/11/04 01:30:52;;;;;;;3.88;2.90;;;9.40;99.90;;;;;;5033061;28;20041;-53
2021/11/04 01:33:18;;;;;;;4.90;2.83;;;9.30;99.90;;;;;;5031212;28;20029;-61
2021/11/04 01:35:45;;;;;;;4.07;2.45;;;9.30;99.90;;;;;;5032727;28;20371;-55
2021/11/04 01:38:11;;;;;;;4.18;2.40;;;9.30;99.90;;;;;;5032725;28;20025;-54
2021/11/04 01:40:40;;;;;;;3.85;2.60;;;9.30;99.90;;;;;;5031166;28;20033;-56
2021/11/04 01:43:06;;;;;;;4.22;2.28;;;9.30;99.90;;;;;;5032444;28;20473;-54
2021/11/04 01:45:33;;;;;;;3.60;2.47;;;9.20;99.90;;;;;;5032695;28;20033;-52
2021/11/04 01:48:03;;;;;;;3.10;2.10;;;9.20;99.90;;;;;;5032346;28;20355;-54
2021/11/04 01:50:30;;;;;;;3.23;2.17;;;9.20;99.90;;;;;;5031169;28;20370;-56
2021/11/04 01:52:57;;;;;;;3.38;2.08;;;9.20;99.90;;;;;;5032134;28;20291;-52
2021/11/04 01:55:25;;;;;;;3.55;2.05;;;9.10;99.90;;;;;;5032568;28;20033;-51
2021/11/04 01:57:53;;;;;;;3.40;1.90;;;9.10;99.90;;;;;;5032565;28;20032;-54
2021/11/04 02:00:30;;;;;;;4.18;2.63;;;9.10;99.90;;;;;;5031817;28;20053;-56
2021/11/04 02:03:21;;;;;;;2.70;2.00;;;9.10;99.90;;;;;;5032259;28;20461;-52
2021/11/04 02:06:09;;;;;;;4.50;2.67;;;9.00;99.90;;;;;;5032437;28;20058;-54
2021/11/04 02:08:49;;;;;;;4.75;2.63;;;9.00;99.90;;;;;;5032048;28;20038;-52
2021/11/04 02:11:32;;;;;;;4.22;1.83;;;9.00;99.90;;;;;;5014908;28;20049;-51
2021/11/04 02:14:07;;;;;;;2.50;1.40;;;9.00;99.90;;;;;;5014408;28;20041;-51
2021/11/04 02:16:35;;;;;;;2.55;1.55;;;8.90;99.90;;;;;;5032125;28;20037;-54
2021/11/04 02:19:14;;;;;;;2.92;1.70;;;8.90;99.90;;;;;;5032141;28;20029;-50
2021/11/04 02:22:13;;;;;;;3.00;1.88;;;9.00;99.90;;;;;;5030733;28;20029;-53
2021/11/04 02:24:56;;;;;;;3.72;2.38;;;9.00;99.90;;;;;;5031793;28;20490;-56
2021/11/04 02:27:23;;;;;;;5.30;2.75;;;9.00;99.90;;;;;;5031038;28;20033;-54
2021/11/04 02:29:50;;;;;;;6.03;2.85;;;9.00;99.90;;;;;;5031561;28;20052;-58
2021/11/04 02:32:18;;;;;;;5.80;4.18;;;9.00;99.90;;;;;;5031834;28;20040;-52
2021/11/04 02:34:46;;;;;;;5.18;3.45;;;9.00;99.90;;;;;;5032181;28;20063;-52
2021/11/04 02:37:13;;;;;;;5.28;3.10;;;9.00;99.90;;;;;;5030377;28;20041;-51
2021/11/04 02:39:40;;;;;;;6.10;3.67;;;9.00;99.90;;;;;;5030584;28;20029;-55
2021/11/04 02:42:08;;;;;;;6.30;4.18;;;9.00;99.90;;;;;;5031278;28;20405;-57
2021/11/04 02:44:35;;;;;;;5.32;3.72;;;9.00;99.90;;;;;;5014022;28;20029;-50
2021/11/04 02:47:03;;;;;;;4.68;3.40;;;8.90;99.90;;;;;;5013995;28;20474;-55
2021/11/04 02:49:30;;;;;;;4.60;2.53;;;8.90;99.90;;;;;;5030961;28;20152;-52
2021/11/04 02:51:57;;;;;;;4.32;2.65;;;8.90;99.90;;;;;;5031547;28;20044;-53
2021/11/04 02:54:24;;;;;;;6.05;2.33;;;8.80;99.90;;;;;;5030263;28;20048;-50
2021/11/04 02:56:53;;;;;;;3.80;2.38;;;8.70;99.90;;;;;;5029612;28;20041;-51
2021/11/04 02:59:21;;;;;;;3.40;2.50;;;8.70;99.90;;;;;;5031304;28;20055;-56
2021/11/04 03:01:50;;;;;;;5.18;2.80;;;8.70;99.90;;;;;;5031443;28;20048;-51
2021/11/04 03:04:18;;;;;;;3.78;2.75;;;8.70;99.90;;;;;;5029702;28;20405;-53
2021/11/04 03:06:45;;;;;;;3.42;2.25;;;8.60;99.90;;;;;;5031433;28;20041;-50
2021/11/04 03:09:13;;;;;;;3.50;2.17;;;8.60;99.90;;;;;;5031233;28;20041;-52
2021/11/04 03:11:39;;;;;;;3.78;2.47;;;8.50;99.90;;;;;;5030690;28;20057;-53
2021/11/04 03:14:06;;;;;;;4.03;2.25;;;8.40;99.90;;;;;;5031022;28;20041;-50
2021/11/04 03:16:40;;;;;;;3.65;2.30;;;8.40;99.90;;;;;;5031758;28;20113;-48
2021/11/04 03:19:08;;;;;;;3.72;2.17;;;8.40;99.90;;;;;;5031245;28;20029;-49
2021/11/04 03:21:38;;;;;;;4.28;2.58;;;8.30;99.90;;;;;;5031502;28;20048;-53
2021/11/04 03:24:06;;;;;;;3.47;2.28;;;8.30;99.90;;;;;;5031296;28;20037;-50
2021/11/04 03:26:36;;;;;;;3.53;2.22;;;8.30;99.90;;;;;;5031256;28;20374;-54
2021/11/04 03:29:04;;;;;;;;;;;8.20;99.90;;;;;;5047076;28;20041;-53
2021/11/04 03:31:32;;;;;;;4.80;2.78;;;8.20;99.90;;;;;;5031452;28;19941;-54
2021/11/04 03:34:00;;;;;;;5.03;3.35;;;8.10;99.90;;;;;;5030955;28;20041;-53
2021/11/04 03:36:27;;;;;;;4.65;3.15;;;8.10;99.90;;;;;;5031428;28;20041;-55
2021/11/04 03:38:54;;;;;;;3.08;2.22;;;8.00;99.90;;;;;;5031284;28;20021;-53
2021/11/04 03:41:20;;;;;;;5.93;2.78;;;7.90;99.90;;;;;;5033339;28;20033;-53
2021/11/04 03:43:48;;;;;;;4.05;2.28;;;7.90;99.90;;;;;;5035033;28;20033;-52
2021/11/04 03:46:15;;;;;;;3.55;2.38;;;7.90;99.90;;;;;;5034896;28;20052;-53
2021/11/04 03:48:43;;;;;;;1.60;1.10;;;7.90;99.90;;;;;;5034870;28;20041;-54
2021/11/04 03:51:10;;;;;;;1.38;0.70;;;7.80;99.90;;;;;;5033235;28;20037;-54
2021/11/04 03:53:37;;;;;;;5.03;1.48;;;7.70;99.90;;;;;;5034594;28;20052;-52
2021/11/04 03:56:05;;;;;;;1.15;0.80;;;7.70;99.90;;;;;;5034528;28;20470;-51
2021/11/04 03:58:33;;;;;;;3.00;1.25;;;7.60;99.90;;;;;;5034788;28;20049;-54
2021/11/04 04:01:00;;;;;;;1.70;0.90;;;7.60;99.90;;;;;;5033928;28;20038;-52
2021/11/04 04:03:27;;;;;;;3.38;1.30;;;7.60;99.90;;;;;;5033995;28;20029;-53
2021/11/04 04:06:00;;;;;;;2.13;1.25;;;7.60;99.90;;;;;;5032689;28;20037;-53
2021/11/04 04:08:28;;;;;;;1.90;1.13;;;7.50;99.90;;;;;;5034095;28;20393;-56
2021/11/04 04:10:55;;;;;;;2.15;1.27;;;7.50;99.90;;;;;;5032496;28;20508;-56
2021/11/04 04:13:21;;;;;;;2.35;1.52;;;7.50;99.90;;;;;;5034179;28;20053;-56
2021/11/04 04:15:48;;;;;;;5.18;1.90;;;7.60;99.90;;;;;;5034603;28;20041;-54
2021/11/04 04:18:14;;;;;;;3.72;2.50;;;7.60;99.90;;;;;;5039594;28;20037;-56
2021/11/04 04:20:41;;;;;;;2.13;1.25;;;7.60;99.90;;;;;;5048110;28;20453;-52
2021/11/04 04:23:08;;;;;;;3.33;1.60;;;7.70;99.90;;;;;;5047704;28;20033;-52
2021/11/04 04:25:35;;;;;;;2.50;1.55;;;7.70;99.90;;;;;;5042394;28;20397;-54
2021/11/04 04:28:01;;;;;;;2.47;1.08;;;7.70;99.90;;;;;;5033823;28;20500;-54
2021/11/04 04:30:27;;;;;;;1.60;0.80;;;7.70;99.90;;;;;;5040457;28;20044;-56
2021/11/04 04:32:54;;;;;;;2.45;1.10;;;7.70;99.90;;;;;;5044083;28;20021;-54
2021/11/04 04:35:22;;;;;;;1.85;1.38;;;7.70;99.90;;;;;;5043090;28;20037;-55
2021/11/04 04:37:48;;;;;;;1.50;0.90;;;7.80;99.90;;;;;;5042709;28;20033;-54
2021/11/04 04:40:14;;;;;;;1.83;1.20;;;7.80;99.90;;;;;;5044991;28;20040;-54
2021/11/04 04:42:41;;;;;;;2.15;1.30;;;7.80;99.90;;;;;;5053885;28;20052;-56
2021/11/04 04:45:08;;;;;;;1.20;1.00;;;7.80;99.90;;;;;;5053600;28;20037;-55
2021/11/04 04:47:34;;;;;;;2.08;1.50;;;7.80;99.90;;;;;;5053584;28;20496;-50
2021/11/04 04:50:01;;;;;;;1.55;1.13;;;7.80;99.90;;;;;;5052717;28;20481;-55
2021/11/04 04:52:28;;;;;;;1.92;1.20;;;7.80;99.90;;;;;;5053292;28;20116;-55
2021/11/04 04:54:56;;;;;;;3.38;1.88;;;7.80;99.90;;;;;;5053152;28;20029;-54
2021/11/04 04:57:23;;;;;;;1.23;1.08;;;7.80;99.90;;;;;;5053543;28;20375;-54
2021/11/04 04:59:51;;;;;;;1.55;1.13;;;7.80;99.90;;;;;;5053197;28;20045;-53
2021/11/04 05:02:19;;;;;;;2.58;1.35;;;7.80;99.90;;;;;;5034986;28;20040;-51
2021/11/04 05:04:46;;;;;;;1.98;1.25;;;7.70;99.90;;;;;;5033253;28;20037;-51
2021/11/04 05:07:12;;;;;;;2.97;1.75;;;7.70;99.90;;;;;;5033354;28;20029;-56
2021/11/04 05:09:38;;;;;;;3.13;1.90;;;7.70;99.90;;;;;;5032935;28;20040;-53
2021/11/04 05:12:05;;;;;;;2.55;1.77;;;7.70;99.90;;;;;;5032894;28;20064;-51
2021/11/04 05:14:32;;;;;;;4.00;2.65;;;7.70;99.90;;;;;;5033095;28;20044;-52
2021/11/04 05:16:58;;;;;;;3.83;2.10;;;7.70;99.90;;;;;;5051391;28;20025;-52
2021/11/04 05:19:25;;;;;;;3.50;2.35;;;7.70;99.90;;;;;;5051665;28;20048;-52
2021/11/04 05:21:51;;;;;;;5.57;3.38;;;7.70;99.90;;;;;;5052883;28;20044;-52
2021/11/04 05:24:18;;;;;;;6.10;3.75;;;7.70;99.90;;;;;;5052946;28;20056;-53
2021/11/04 05:26:44;;;;;;;6.68;4.88;;;7.70;99.90;;;;;;5052900;28;20033;-53
2021/11/04 05:29:11;;;;;;;7.43;5.60;;;7.70;99.90;;;;;;5051636;28;20032;-56
2021/11/04 05:31:38;;;;;;;8.32;5.63;;;7.80;99.90;;;;;;5052375;28;20045;-54
2021/11/04 05:34:04;;;;;;;8.50;6.20;;;7.80;99.90;;;;;;5052881;28;20040;-55
2021/11/04 05:36:30;;;;;;;9.38;7.32;;;7.80;99.90;;;;;;5052538;28;20064;-57
2021/11/04 05:38:57;;;;;;;9.07;6.95;;;7.80;99.90;;;;;;5052587;28;20032;-54
2021/11/04 05:41:23;;;;;;;7.97;6.03;;;7.80;99.90;;;;;;5052129;28;20033;-51
2021/11/04 05:43:50;;;;;;;9.43;6.15;;;7.80;99.90;;;;;;5052376;28;20044;-55
2021/11/04 05:46:17;;;;;;;8.18;6.50;;;7.80;99.90;;;;;;5052365;28;20039;-54
2021/11/04 05:48:44;;;;;;;9.38;7.32;;;7.80;99.90;;;;;;5052294;28;20045;-54
2021/11/04 05:51:10;;;;;;;9.70;6.70;;;7.80;99.90;;;;;;5052652;28;20040;-54
2021/11/04 05:53:37;;;;;;;9.55;7.63;;;7.80;99.90;;;;;;5050959;28;20024;-55
2021/11/04 05:56:03;;;;;;;10.55;6.43;;;7.80;99.90;;;;;;5052350;28;20043;-56
2021/11/04 05:58:30;;;;;;;8.88;6.07;;;7.80;99.90;;;;;;5052049;28;20025;-53
2021/11/04 06:00:56;;;;;;;8.60;6.03;;;7.80;99.90;;;;;;5043236;28;20044;-53
2021/11/04 06:03:23;;;;;;;9.90;6.38;;;7.80;99.90;;;;;;5032095;28;20500;-53
2021/11/04 06:05:49;;;;;;;8.07;6.15;;;7.80;99.90;;;;;;5034585;28;20138;-58
2021/11/04 06:08:16;;;;;;;6.95;5.10;;;7.90;99.90;;;;;;5032078;28;20049;-52
2021/11/04 06:10:42;;;;;;;7.35;5.38;;;7.90;99.90;;;;;;5031375;28;20346;-56
2021/11/04 06:13:09;;;;;;;5.82;4.28;;;7.90;99.90;;;;;;5037664;28;20389;-53
2021/11/04 06:15:36;;;;;;;7.50;5.40;;;7.90;99.90;;;;;;5044157;28;20489;-54
2021/11/04 06:18:02;;;;;;;7.65;4.70;;;7.80;99.90;;;;;;5051787;28;20476;-52
2021/11/04 06:20:29;;;;;;;6.95;3.85;;;7.70;99.90;;;;;;5051712;28;20044;-50
2021/11/04 06:22:56;;;;;;;6.50;4.72;;;7.60;99.90;;;;;;5045920;28;20032;-60
2021/11/04 06:25:23;;;;;;;6.88;4.35;;;7.60;99.90;;;;;;5034178;28;20050;-54
2021/11/04 06:27:49;;;;;;;6.60;4.22;;;7.50;99.90;;;;;;5039782;28;20355;-54
2021/11/04 06:30:16;;;;;;;6.20;4.32;;;7.50;99.90;;;;;;5041813;28;20032;-54
2021/11/04 06:32:43;;;;;;;5.85;4.43;;;7.50;99.90;;;;;;5042245;28;20044;-54
2021/11/04 06:35:10;;;;;;;5.85;4.53;;;7.60;99.90;;;;;;5040031;28;20048;-56
2021/11/04 06:37:37;;;;;;;6.97;4.82;;;7.50;99.90;;;;;;5051546;28;20389;-52
2021/11/04 06:40:06;;;;;;;9.38;5.32;;;7.50;99.90;;;;;;5051254;28;20029;-55
2021/11/04 06:42:32;;;;;;;7.85;4.95;;;7.50;99.90;;;;;;5051681;28;20378;-53
2021/11/04 06:44:58;;;;;;;8.35;5.78;;;7.50;99.90;;;;;;5051773;28;20029;-53
2021/11/04 06:47:30;;;;;;;6.35;4.68;;;7.50;99.90;;;;;;5051711;28;20040;-52
2021/11/04 06:49:58;;;;;;;7.35;5.15;;;7.50;99.90;;;;;;5050546;28;20067;-49
2021/11/04 06:52:38;;;;;;;7.38;4.75;;;7.50;99.90;;;;;;5051532;28;20059;-57
2021/11/04 06:55:06;;;;;;;7.50;5.40;;;7.50;99.90;;;;;;5040787;28;20025;-54
2021/11/04 06:57:38;;;;;;;10.98;6.30;;;7.60;99.90;;;;;;5032610;28;20044;-52
2021/11/04 07:00:07;;;;;;;8.45;5.95;;;7.70;99.90;;;;;;5032198;28;20082;-55
2021/11/04 07:02:37;;;;;;;8.60;6.78;;;7.80;99.90;;;;;;5032080;28;20050;-54
2021/11/04 07:05:06;;;;;;;;;;;7.90;99.90;;;;;;5034489;28;20385;-55
2021/11/04 07:07:43;;;;;;;8.00;6.05;;;7.90;99.90;;;;;;5046596;28;19916;-54
2021/11/04 07:10:16;;;;;;;8.95;6.45;;;8.10;99.90;;;;;;5031583;28;20053;-56
2021/11/04 07:12:48;;;;;;;12.15;6.55;;;8.20;99.90;;;;;;5030777;28;20056;-54
2021/11/04 07:15:18;;;;;;;8.93;6.55;;;8.40;99.90;;;;;;5051349;28;20041;-58
2021/11/04 07:17:45;;;;;;;8.00;6.65;;;8.50;99.90;;;;;;5055767;28;20029;-57
2021/11/04 07:20:16;;;;;;;10.00;6.80;;;8.60;99.90;;;;;;5055340;28;20481;-54
2021/11/04 07:22:56;;;;;;;9.35;7.00;;;8.70;99.90;;;;;;5055869;28;20033;-53
2021/11/04 07:25:25;;;;;;;8.93;6.75;;;8.80;99.90;;;;;;5055493;28;20453;-50
2021/11/04 07:27:54;;;;;;;8.82;6.30;;;8.90;99.90;;;;;;5049594;28;20327;-60
2021/11/04 07:30:22;;;;;;;9.13;5.60;;;8.90;99.90;;;;;;5044103;28;20390;-48
2021/11/04 07:32:51;;;;;;;9.40;6.53;;;9.00;99.90;;;;;;5045982;28;20374;-48
2021/11/04 07:35:21;;;;;;;8.80;6.80;;;9.10;99.90;;;;;;5046237;28;20033;-48
2021/11/04 07:37:48;;;;;;;9.57;7.15;;;9.10;99.90;;;;;;5043195;28;20040;-48
2021/11/04 07:40:17;;;;;;;11.38;7.32;;;9.10;99.90;;;;;;5044378;28;20372;-51
2021/11/04 07:42:44;;;;;;;9.45;6.88;;;9.20;99.90;;;;;;5038011;28;20252;-55
2021/11/04 07:45:11;;;;;;;8.88;7.72;;;9.20;99.90;;;;;;5035496;28;20037;-56
2021/11/04 07:47:40;;;;;;;11.90;6.68;;;9.30;99.90;;;;;;5035148;28;20022;-56
2021/11/04 07:50:09;;;;;;;9.00;7.05;;;9.30;99.90;;;;;;5052237;28;20033;-54
2021/11/04 07:52:38;;;;;;;9.13;6.47;;;9.30;99.90;;;;;;5052020;28;20501;-55
2021/11/04 07:55:05;;;;;;;11.70;5.90;;;9.40;99.90;;;;;;5045042;28;20029;-50
2021/11/04 07:57:33;;;;;;;9.02;6.72;;;9.50;99.90;;;;;;5035031;28;20029;-53
2021/11/04 08:00:04;;;;;;;12.93;7.68;;;9.50;99.90;;;;;;5035489;28;20045;-50
2021/11/04 08:02:31;;;;;;;9.65;7.00;;;9.60;99.90;;;;;;5035371;28;20048;-53
2021/11/04 08:04:58;;;;;;;11.70;8.90;;;9.70;99.90;;;;;;5038750;28;20066;-53
2021/11/04 08:07:24;;;;;;;9.60;8.13;;;9.70;99.90;;;;;;5035332;28;20041;-54
2021/11/04 08:09:51;;;;;;;10.77;8.95;;;9.90;99.90;;;;;;5032748;28;20041;-56
2021/11/04 08:12:17;;;;;;;11.13;8.73;;;9.90;99.90;;;;;;5033437;28;20049;-57
2021/11/04 08:14:44;;;;;;;10.00;8.15;;;9.90;99.90;;;;;;5034275;28;20045;-56
2021/11/04 08:17:10;;;;;;;9.63;7.63;;;10.00;99.90;;;;;;5034952;28;20037;-54
2021/11/04 08:19:36;;;;;;;10.55;7.38;;;10.10;99.90;;;;;;5034624;28;20041;-54
2021/11/04 08:22:03;;;;;;;11.02;8.35;;;10.20;99.90;;;;;;5035054;28;20044;-54
2021/11/04 08:24:30;;;;;;;8.38;6.43;;;10.30;99.90;;;;;;5034526;28;20056;-54
2021/11/04 08:26:56;;;;;;;9.20;6.10;;;10.30;99.90;;;;;;5035085;28;20045;-55
2021/11/04 08:29:23;;;;;;;8.52;6.43;;;10.30;99.90;;;;;;5035325;28;20366;-54
2021/11/04 08:31:49;;;;;;;16.95;9.38;;;10.40;99.90;;;;;;5035552;28;20049;-54
2021/11/04 08:34:16;;;;;;;13.60;9.73;;;10.40;99.90;;;;;;5034889;28;20050;-53
2021/11/04 08:36:43;;;;;;;13.75;8.45;;;10.50;99.90;;;;;;5035361;28;20049;-55
2021/11/04 08:39:10;;;;;;;10.90;8.63;;;10.60;99.90;;;;;;5035513;28;20041;-57
2021/11/04 08:41:37;;;;;;;14.07;10.30;;;10.70;99.90;;;;;;5034875;28;20030;-53
2021/11/04 08:44:03;;;;;;;12.38;8.98;;;10.80;99.90;;;;;;5035019;28;20064;-51
2021/11/04 08:46:30;;;;;;;10.13;8.13;;;10.80;99.90;;;;;;5034879;28;20037;-55
2021/11/04 08:48:56;;;;;;;9.60;7.95;;;10.90;99.90;;;;;;5035219;28;20045;-59
2021/11/04 08:51:23;;;;;;;9.93;7.07;;;10.90;99.20;;;;;;5035378;28;20049;-55
2021/11/04 08:53:50;;;;;;;11.07;8.88;;;11.00;99.60;;;;;;5035011;28;20049;-53
2021/11/04 08:56:16;;;;;;;9.05;7.18;;;11.00;99.70;;;;;;5034450;28;20025;-52
2021/11/04 08:58:43;;;;;;;8.60;7.18;;;11.10;99.80;;;;;;5035096;28;20113;-54
2021/11/04 09:01:09;;;;;;;11.50;8.32;;;11.10;98.80;;;;;;5033128;28;20389;-51
2021/11/04 09:03:36;;;;;;;10.68;8.63;;;11.10;97.90;;;;;;5034932;28;20478;-52
2021/11/04 09:06:03;;;;;;;11.43;8.00;;;11.20;97.70;;;;;;5034896;28;20038;-50
2021/11/04 09:08:30;;;;;;;5.78;4.50;;;11.20;97.40;;;;;;5034602;28;20049;-50
2021/11/04 09:10:57;;;;;;;6.40;4.03;;;11.30;96.40;;;;;;5034599;28;20501;-50
2021/11/04 09:13:24;;;;;;;7.50;3.78;;;11.30;95.10;;;;;;5034923;28;20038;-49
2021/11/04 09:15:51;;;;;;;5.57;3.70;;;11.30;94.20;;;;;;5034520;28;20049;-51
2021/11/04 09:18:18;;;;;;;6.35;3.83;;;11.30;94.50;;;;;;5034650;28;20044;-50
2021/11/04 09:20:45;;;;;;;7.10;3.20;;;11.40;95.00;;;;;;5032419;28;20042;-49
2021/11/04 09:23:12;;;;;;;5.97;2.75;;;11.40;93.90;;;;;;5034343;28;20037;-52
2021/11/04 09:25:39;;;;;;;3.95;2.58;;;11.40;93.70;;;;;;5034958;28;20037;-55
2021/11/04 09:28:05;;;;;;;4.53;2.30;;;11.40;93.60;;;;;;5033646;28;20056;-54
2021/11/04 09:30:32;;;;;;;3.42;2.40;;;11.50;93.50;;;;;;5034395;28;20041;-54
2021/11/04 09:32:58;;;;;;;3.65;2.45;;;11.50;93.00;;;;;;5034020;28;20041;-54
2021/11/04 09:35:25;;;;;;;3.58;2.58;;;11.60;93.20;;;;;;5034417;28;20045;-56
2021/11/04 09:37:52;;;;;;;3.83;2.03;;;11.60;92.70;;;;;;5033821;28;20095;-55
2021/11/04 09:40:19;;;;;;;5.88;2.97;;;11.60;91.70;;;;;;5033699;28;20037;-55
2021/11/04 09:42:47;;;;;;;3.22;2.20;;;11.70;91.80;;;;;;5033907;28;20033;-54
2021/11/04 09:45:14;;;;;;;3.45;1.70;;;11.70;91.70;;;;;;5033674;28;20044;-53
2021/11/04 09:47:41;;;;;;;2.67;1.83;;;11.70;91.30;;;;;;5034347;28;20049;-51
2021/11/04 09:50:10;;;;;;;2.53;1.60;;;11.80;90.90;;;;;;5033940;28;20049;-49
2021/11/04 09:52:39;;;;;;;2.63;1.50;;;11.80;89.30;;;;;;5033957;28;20386;-50
2021/11/04 09:55:13;;;;;;;3.97;1.88;;;11.80;88.90;;;;;;5033552;28;20037;-52
2021/11/04 09:57:41;;;;;;;3.22;1.88;;;11.90;89.20;;;;;;5033814;28;20056;-55
2021/11/04 10:00:09;;;;;;;3.50;1.70;;;11.90;87.70;;;;;;5033647;28;20042;-53
2021/11/04 10:02:36;;;;;;;14.77;2.00;;;11.90;86.40;;;;;;5033558;28;20060;-51
2021/11/04 10:05:09;;;;;;;2.67;1.88;;;11.90;87.30;;;;;;5033731;28;20369;-54
2021/11/04 10:07:45;;;;;;;4.85;2.42;;;12.00;88.70;;;;;;5033842;28;20481;-54
2021/11/04 10:10:14;;;;;;;3.42;1.88;;;12.00;87.40;;;;;;5032477;28;20049;-55
2021/11/04 10:13:06;;;;;;;3.08;2.00;;;12.10;88.00;;;;;;5033465;28;20045;-53
2021/11/04 10:15:39;;;;;;;4.35;2.67;;;12.10;86.50;;;;;;5033217;28;20053;-55
2021/11/04 10:18:16;;;;;;;3.10;2.03;;;12.20;86.00;;;;;;5033787;28;20072;-53
2021/11/04 10:20:56;;;;;;;3.25;1.77;;;12.20;87.20;;;;;;5033167;28;20045;-54
2021/11/04 10:23:24;;;;;;;2.25;1.50;;;12.30;80.20;;;;;;5033557;28;20354;-51
2021/11/04 10:26:01;;;;;;;2.70;1.90;;;12.30;77.40;;;;;;5033270;28;20037;-54
2021/11/04 10:28:29;;;;;;;4.47;2.30;;;12.40;78.00;;;;;;5033473;28;20045;-55
2021/11/04 10:30:57;;;;;;;5.03;3.08;;;12.50;78.50;;;;;;5033270;28;20049;-53
2021/11/04 10:33:27;;;;;;;3.40;2.08;;;12.50;78.00;;;;;;5032975;28;20482;-54
2021/11/04 10:35:56;;;;;;;5.53;2.05;;;12.50;77.50;;;;;;5033150;28;20048;-51
2021/11/04 10:38:36;;;;;;;2.78;1.60;;;12.60;77.90;;;;;;5032610;28;20037;-51
2021/11/04 10:41:05;;;;;;;4.50;2.90;;;12.60;76.90;;;;;;5033370;28;20091;-55
2021/11/04 10:43:33;;;;;;;2.53;1.67;;;12.70;75.90;;;;;;5033517;28;20041;-53
2021/11/04 10:46:04;;;;;;;3.67;2.85;;;12.70;76.00;;;;;;5032926;28;20033;-52
2021/11/04 10:48:31;;;;;;;2.97;1.73;;;12.80;76.40;;;;;;5032016;28;20067;-53
2021/11/04 10:50:58;;;;;;;5.32;1.98;;;12.80;75.00;;;;;;5030901;28;20048;-55
2021/11/04 10:53:26;;;;;;;5.65;1.98;;;12.90;74.90;;;;;;5032248;28;20049;-53
2021/11/04 10:56:17;;;;;;;2.25;1.42;;;12.90;74.50;;;;;;5033667;28;20374;-55
2021/11/04 10:58:52;;;;;;;3.55;1.80;;;12.90;72.20;;;;;;5031686;28;20045;-55
2021/11/04 11:01:26;;;;;;;3.05;1.80;;;12.90;71.90;;;;;;5033370;28;20033;-55
2021/11/04 11:03:55;;;;;;;2.70;1.77;;;13.00;73.20;;;;;;5032985;28;20481;-55
2021/11/04 11:06:23;;;;;;;2.25;1.45;;;13.00;72.00;;;;;;5032742;28;20478;-54
2021/11/04 11:08:49;;;;;;;5.03;1.58;;;13.10;70.80;;;;;;5032876;28;20034;-54
2021/11/04 11:11:19;;;;;;;6.43;2.00;;;13.10;70.70;;;;;;5032142;28;20049;-55
2021/11/04 11:13:47;;;;;;;4.07;2.55;;;13.20;70.50;;;;;;5032728;28;20046;-53
2021/11/04 11:16:16;;;;;;;2.35;1.70;;;13.20;71.10;;;;;;5032987;28;20044;-55
2021/11/04 11:18:43;;;;;;;3.28;2.05;;;13.20;72.80;;;;;;5032394;28;20037;-54
2021/11/04 11:21:10;;;;;;;3.58;2.90;;;13.30;73.40;;;;;;5032956;28;20060;-55
2021/11/04 11:23:37;;;;;;;3.85;2.33;;;13.30;73.30;;;;;;5032312;28;20032;-55
2021/11/04 11:26:05;;;;;;;3.92;1.73;;;13.30;72.90;;;;;;5033002;28;20036;-56
2021/11/04 11:28:37;;;;;;;5.07;1.88;;;13.30;71.00;;;;;;5032453;28;20045;-55
2021/11/04 11:31:10;;;;;;;5.53;2.08;;;13.40;72.10;;;;;;5039406;28;20109;-55
2021/11/04 11:33:38;;;;;;;2.47;1.88;;;13.40;72.60;;;;;;5041692;28;20033;-55
2021/11/04 11:36:26;;;;;;;3.20;2.30;;;13.40;74.40;;;;;;5034893;28;20393;-54
2021/11/04 11:38:56;;;;;;;3.17;1.95;;;13.40;75.70;;;;;;5034835;28;20377;-56
2021/11/04 11:41:44;;;;;;;3.78;2.22;;;13.40;76.40;;;;;;5038119;28;20040;-51
2021/11/04 11:44:11;;;;;;;6.78;2.58;;;13.40;77.40;;;;;;5034257;28;20048;-56
2021/11/04 11:47:00;;;;;;;7.25;3.25;;;13.50;78.80;;;;;;5042354;28;20029;-53
2021/11/04 11:49:27;;;;;;;10.25;3.58;;;13.60;79.30;;;;;;5037823;28;20026;-53
2021/11/04 11:51:54;;;;;;;7.75;3.55;;;13.60;80.50;;;;;;5036580;28;20044;-55
2021/11/04 11:54:58;;;;;;;6.07;3.17;;;13.60;81.30;;;;;;5043746;28;20029;-55
2021/11/04 11:57:26;;;;;;;5.07;3.15;;;13.60;80.50;;;;;;5033554;28;20049;-52
2021/11/04 11:59:55;;;;;;;4.15;2.08;;;13.60;81.60;;;;;;5034942;28;20029;-51
2021/11/04 12:02:54;;;;;;;4.07;2.05;;;13.70;77.90;;;;;;5034715;28;20025;-51
2021/11/04 12:05:33;;;;;;;6.40;2.70;;;13.70;75.20;;;;;;5044283;28;20027;-54
2021/11/04 12:08:08;;;;;;;4.40;3.08;;;13.70;77.40;;;;;;5037283;28;20032;-55
2021/11/04 12:10:39;;;;;;;2.33;2.05;;;13.70;78.50;;;;;;5036548;28;20048;-52
2021/11/04 12:13:06;;;;;;;3.72;2.30;;;13.70;73.90;;;;;;5046194;28;20028;-56
2021/11/04 12:16:05;;;;;;;3.40;2.28;;;13.70;72.70;;;;;;5038532;28;20496;-54
2021/11/04 12:18:32;;;;;;;5.32;2.88;;;13.70;75.60;;;;;;5039340;28;20072;-56
2021/11/04 12:20:58;;;;;;;10.45;7.05;;;13.70;78.00;;;;;;5041347;28;20026;-56
2021/11/04 12:23:35;;;;;;;13.55;6.15;;;13.80;80.00;;;;;;5035475;28;20037;-56
2021/11/04 12:26:06;;;;;;;10.73;4.75;;;14.00;80.70;;;;;;5032635;28;20037;-55
2021/11/04 12:28:48;;;;;;;7.20;3.97;;;14.00;79.60;;;;;;5041202;28;20029;-54
2021/11/04 12:31:17;;;;;;;3.30;2.58;;;14.00;75.70;;;;;;5036963;28;20038;-56
2021/11/04 12:33:43;;;;;;;4.13;2.80;;;14.00;75.90;;;;;;5037548;28;20045;-55
2021/11/04 12:36:10;;;;;;;3.72;2.25;;;14.00;74.60;;;;;;5044852;28;20036;-56
2021/11/04 12:38:44;;;;;;;3.75;2.47;;;14.00;73.40;;;;;;5037067;28;20033;-56
2021/11/04 12:41:16;;;;;;;2.65;1.52;;;14.00;73.60;;;;;;5039774;28;20037;-56
2021/11/04 12:43:47;;;;;;;2.00;1.52;;;14.00;72.80;;;;;;5038489;28;20045;-59
2021/11/04 12:46:25;;;;;;;2.97;1.58;;;14.00;71.90;;;;;;5036848;28;20036;-57
2021/11/04 12:48:56;;;;;;;2.92;2.03;;;14.00;69.30;;;;;;5035384;28;20048;-55
2021/11/04 12:51:24;;;;;;;3.28;1.52;;;14.00;70.20;;;;;;5038107;28;20385;-55
2021/11/04 12:54:01;;;;;;;2.50;1.77;;;14.00;68.50;;;;;;5039891;28;20033;-54
2021/11/04 12:56:40;;;;;;;2.45;1.55;;;14.10;68.50;;;;;;5038914;28;20394;-53
2021/11/04 12:59:09;;;;;;;1.45;0.93;;;14.10;66.70;;;;;;5039392;28;20505;-55
2021/11/04 13:02:06;;;;;;;1.23;0.88;;;14.10;58.70;;;;;;5047390;28;20032;-53